Nearby METAR Reports

 

EGQL - Leuchars Raf, United Kingdom
Distance from station: SW 17km
Updated: 30/06/2022 17:20
Overcast
Overcast
 Wind from W
Wind: W 9 km/h
Temperature: 12°C
Dew Point: 11°C
Humidity: 94%
Barometer: 1010 hPa
Clouds: Overcast
Visibility: 10 km
Cloud details: Overcast 4877 m
2022/07/01 00:20 EGQL 010020Z AUTO 27005KT 9999 OVC160/// 12/11 Q1010
EGPN - Dundee/Riverside, United Kingdom
Distance from station: WSW 20km
Updated: 30/06/2022 12:50
NOT Current
Few Clouds
Few Clouds
 Wind from W
Wind: W 6 km/h
Temperature: 18°C
Dew Point: 10°C
Humidity: 60%
Barometer: 1010 hPa
Clouds: Few Clouds
Visibility: 10 km
Cloud details: Few Clouds 610 m
2022/06/30 19:50 EGPN 301950Z 26003KT 9999 FEW020 18/10 Q1010
 
EGPH - Edinburgh Airpor, United Kingdom
Distance from station: SSW 74km
Updated: 30/06/2022 17:20
Clear
Clear
 Wind from W
Wind: W 6 km/h
Temperature: 13°C
Dew Point: 11°C
Humidity: 88%
Barometer: 1011 hPa
Summary: Clear
Visibility: greater than 10 km
2022/07/01 00:20 EGPH 010020Z 27003KT 240V300 CAVOK 13/11 Q1011
EGPD - Aberdeen/Dyce, United Kingdom
Distance from station: NNE 82km
Updated: 30/06/2022 17:20
Clear
Clear
 Wind from varies
Wind: varies 2 km/h
Temperature: 12°C
Dew Point: 11°C
Humidity: 94%
Barometer: 1010 hPa
Clouds: Clear
Visibility: 10 km
2022/07/01 00:20 EGPD 010020Z AUTO VRB01KT 9999 NCD 12/11 Q1010